createdAt,value
2023-04-06T00:00:59.555Z,99628.63
2023-04-06T00:03:26.441Z,99636.09
2023-04-06T00:05:53.486Z,99630.41
2023-04-06T00:08:22.363Z,99628.47
2023-04-06T00:10:48.865Z,99637.53
2023-04-06T00:13:15.675Z,99629.53
2023-04-06T00:15:42.288Z,99627.34
2023-04-06T00:18:08.880Z,99629.47
2023-04-06T00:20:35.498Z,99627.00
2023-04-06T00:23:02.120Z,99629.13
2023-04-06T00:25:28.821Z,99625.09
2023-04-06T00:27:55.652Z,99618.38
2023-04-06T00:30:22.275Z,99626.06
2023-04-06T00:32:48.880Z,99622.59
2023-04-06T00:35:16.752Z,99609.72
2023-04-06T00:37:43.274Z,99615.31
2023-04-06T00:40:10.522Z,99613.94
2023-04-06T00:42:37.451Z,99605.03
2023-04-06T00:45:04.445Z,99614.59
2023-04-06T00:47:31.128Z,99608.94
2023-04-06T00:49:57.784Z,99602.47
2023-04-06T00:52:24.395Z,99604.78
2023-04-06T00:54:51.675Z,99608.53
2023-04-06T00:57:18.819Z,99607.97
2023-04-06T00:59:46.487Z,99598.56
2023-04-06T01:02:13.241Z,99603.09
2023-04-06T01:04:39.856Z,99603.91
2023-04-06T01:07:06.391Z,99603.09
2023-04-06T01:09:33.023Z,99594.53
2023-04-06T01:12:00.197Z,99591.28
2023-04-06T01:14:26.972Z,99589.69
2023-04-06T01:16:53.716Z,99588.56
2023-04-06T01:19:22.066Z,99598.06
2023-04-06T01:21:50.528Z,99587.41
2023-04-06T01:24:17.374Z,99590.00
2023-04-06T01:26:44.036Z,99585.97
2023-04-06T01:29:10.566Z,99586.41
2023-04-06T01:31:37.194Z,99587.25
2023-04-06T01:34:03.794Z,99592.59
2023-04-06T01:36:30.689Z,99583.53
2023-04-06T01:38:57.348Z,99591.53
2023-04-06T01:41:23.951Z,99578.66
2023-04-06T01:43:50.756Z,99578.09
2023-04-06T01:46:17.417Z,99575.34
2023-04-06T01:48:44.004Z,99576.88
2023-04-06T01:51:10.589Z,99578.97
2023-04-06T01:53:37.136Z,99583.19
2023-04-06T01:56:03.905Z,99576.72
2023-04-06T01:58:30.491Z,99575.09
2023-04-06T02:00:57.125Z,99578.00
2023-04-06T02:03:23.732Z,99573.41
2023-04-06T02:05:50.458Z,99574.91
2023-04-06T02:08:17.104Z,99571.66
2023-04-06T02:10:43.710Z,99565.53
2023-04-06T02:13:10.279Z,99568.44
2023-04-06T02:15:36.896Z,99562.53
2023-04-06T02:18:03.515Z,99559.88
2023-04-06T02:20:30.823Z,99563.56
2023-04-06T02:22:59.846Z,99572.16
2023-04-06T02:25:26.412Z,99565.19
2023-04-06T02:27:52.982Z,99562.53
2023-04-06T02:30:19.559Z,99557.44
2023-04-06T02:32:46.211Z,99554.53
2023-04-06T02:35:12.899Z,99563.56
2023-04-06T02:37:39.435Z,99558.25
2023-04-06T02:40:07.254Z,99562.78
2023-04-06T02:42:34.034Z,99568.34
2023-04-06T02:45:00.817Z,99564.53
2023-04-06T02:47:27.403Z,99559.44
2023-04-06T02:49:54.033Z,99557.25
2023-04-06T02:52:20.598Z,99558.53
2023-04-06T02:54:47.120Z,99561.69
2023-04-06T02:57:13.699Z,99553.38
2023-04-06T02:59:40.480Z,99556.25
2023-04-06T03:02:07.122Z,99556.75
2023-04-06T03:04:33.678Z,99556.19
2023-04-06T03:07:01.413Z,99554.78
2023-04-06T03:09:28.553Z,99559.31
2023-04-06T03:11:55.176Z,99562.47
2023-04-06T03:14:23.227Z,99562.94
2023-04-06T03:16:50.062Z,99558.63
2023-04-06T03:19:16.704Z,99558.06
2023-04-06T03:21:43.370Z,99549.28
2023-04-06T03:24:09.962Z,99555.97
2023-04-06T03:26:36.556Z,99552.50
2023-04-06T03:29:03.225Z,99551.69
2023-04-06T03:31:29.825Z,99556.22
2023-04-06T03:33:56.510Z,99556.44
2023-04-06T03:36:23.142Z,99567.69
2023-04-06T03:38:49.765Z,99560.72
2023-04-06T03:41:16.337Z,99568.50
2023-04-06T03:43:42.866Z,99563.19
2023-04-06T03:46:09.472Z,99569.31
2023-04-06T03:48:36.154Z,99566.19
2023-04-06T03:51:02.755Z,99563.25
2023-04-06T03:53:29.377Z,99563.03
2023-04-06T03:55:56.177Z,99560.94
2023-04-06T03:58:22.807Z,99569.25
2023-04-06T04:00:49.380Z,99564.81
2023-04-06T04:03:16.057Z,99568.88
2023-04-06T04:05:43.965Z,99560.97
2023-04-06T04:08:10.620Z,99555.16
2023-04-06T04:10:37.203Z,99562.44
2023-04-06T04:13:03.741Z,99565.69
2023-04-06T04:15:30.395Z,99567.88
2023-04-06T04:17:57.011Z,99568.44
2023-04-06T04:20:23.707Z,99566.31
2023-04-06T04:22:50.263Z,99571.19
2023-04-06T04:25:16.817Z,99574.44
2023-04-06T04:27:43.395Z,99573.13
2023-04-06T04:30:10.404Z,99577.19
2023-04-06T04:32:37.072Z,99575.59
2023-04-06T04:35:04.133Z,99574.28
2023-04-06T04:37:30.906Z,99575.09
2023-04-06T04:39:57.779Z,99575.09
2023-04-06T04:42:24.299Z,99585.50
2023-04-06T04:44:50.980Z,99577.28
2023-04-06T04:47:17.525Z,99585.06
2023-04-06T04:49:44.103Z,99582.06
2023-04-06T04:52:10.881Z,99578.81
2023-04-06T04:54:37.457Z,99583.53
2023-04-06T04:57:04.047Z,99583.66
2023-04-06T04:59:30.934Z,99575.97
2023-04-06T05:01:57.706Z,99569.34
2023-04-06T05:04:25.006Z,99570.13
2023-04-06T05:06:51.697Z,99580.41
2023-04-06T05:09:18.761Z,99564.34
2023-04-06T05:11:45.431Z,99570.31
2023-04-06T05:14:12.108Z,99583.38
2023-04-06T05:16:38.702Z,99576.56
2023-04-06T05:19:05.308Z,99580.50
2023-04-06T05:21:32.784Z,99581.25
2023-04-06T05:23:59.682Z,99578.88
2023-04-06T05:26:26.354Z,99572.28
2023-04-06T05:28:52.949Z,99579.34
2023-04-06T05:31:19.630Z,99586.16
2023-04-06T05:33:46.405Z,99572.97
2023-04-06T05:36:15.054Z,99576.06
2023-04-06T05:38:41.961Z,99581.31
2023-04-06T05:41:08.567Z,99576.06
2023-04-06T05:43:35.499Z,99581.97
2023-04-06T05:46:02.229Z,99579.75
2023-04-06T05:48:28.903Z,99582.69
2023-04-06T05:50:55.946Z,99584.81
2023-04-06T05:53:22.544Z,99590.94
2023-04-06T05:55:49.103Z,99585.59
2023-04-06T05:58:15.971Z,99587.22
2023-04-06T06:00:43.721Z,99587.56
2023-04-06T06:03:11.085Z,99584.16
2023-04-06T06:05:37.727Z,99587.38
2023-04-06T06:08:04.445Z,99585.59
2023-04-06T06:10:31.217Z,99583.28
2023-04-06T06:12:57.760Z,99585.88
2023-04-06T06:15:24.416Z,99584.41
2023-04-06T06:17:50.989Z,99576.75
2023-04-06T06:20:17.735Z,99576.59
2023-04-06T06:22:44.397Z,99588.97
2023-04-06T06:25:10.943Z,99588.78
2023-04-06T06:27:37.673Z,99586.72
2023-04-06T06:30:04.916Z,99587.88
2023-04-06T06:32:31.580Z,99584.22
2023-04-06T06:34:58.147Z,99594.16
2023-04-06T06:37:24.766Z,99595.78
2023-04-06T06:39:51.437Z,99596.09
2023-04-06T06:42:18.108Z,99589.16
2023-04-06T06:44:44.852Z,99600.44
2023-04-06T06:47:11.593Z,99606.34
2023-04-06T06:49:38.156Z,99604.50
2023-04-06T06:52:04.834Z,99601.63
2023-04-06T06:54:31.395Z,99593.63
2023-04-06T06:56:57.934Z,99598.81
2023-04-06T06:59:24.655Z,99593.72
2023-04-06T07:01:51.382Z,99603.97
2023-04-06T07:04:18.017Z,99598.13
2023-04-06T07:06:44.732Z,99593.38
2023-04-06T07:09:11.340Z,99604.66
2023-04-06T07:11:37.947Z,99598.09
2023-04-06T07:14:04.492Z,99600.09
2023-04-06T07:16:31.238Z,99591.91
2023-04-06T07:18:58.006Z,99601.81
2023-04-06T07:21:24.580Z,99601.38
2023-04-06T07:23:51.827Z,99601.97
2023-04-06T07:26:18.610Z,99604.22
2023-04-06T07:28:46.441Z,99589.78
2023-04-06T07:31:13.213Z,99602.16
2023-04-06T07:33:39.786Z,99603.81
2023-04-06T07:36:06.469Z,99597.97
2023-04-06T07:38:33.209Z,99604.50
2023-04-06T07:40:59.795Z,99597.00
2023-04-06T07:43:26.397Z,99591.69
2023-04-06T07:45:53.273Z,99594.63
2023-04-06T07:48:19.837Z,99600.59
2023-04-06T07:50:46.496Z,99588.78
2023-04-06T07:53:13.095Z,99592.53
2023-04-06T07:55:39.831Z,99590.69
2023-04-06T07:58:06.459Z,99590.69
2023-04-06T08:00:33.242Z,99590.72
2023-04-06T08:03:00.098Z,99582.16
2023-04-06T08:05:27.015Z,99580.53
2023-04-06T08:07:53.732Z,99580.59
2023-04-06T08:10:20.548Z,99580.56
2023-04-06T08:12:47.183Z,99568.72
2023-04-06T08:15:13.765Z,99576.28
2023-04-06T08:17:40.772Z,99571.97
2023-04-06T08:20:07.727Z,99578.38
2023-04-06T08:22:34.286Z,99577.81
2023-04-06T08:25:00.867Z,99577.81
2023-04-06T08:27:27.551Z,99562.19
2023-04-06T08:29:54.191Z,99570.47
2023-04-06T08:32:20.871Z,99568.81
2023-04-06T08:34:47.949Z,99572.53
2023-04-06T08:37:14.578Z,99570.09
2023-04-06T08:39:41.333Z,99569.25
2023-04-06T08:42:17.405Z,99569.47
2023-04-06T08:44:45.098Z,99565.91
2023-04-06T08:47:11.889Z,99572.03
2023-04-06T08:49:39.857Z,99570.91
2023-04-06T08:52:08.979Z,99567.06
2023-04-06T08:54:35.841Z,99570.03
2023-04-06T08:57:03.981Z,99568.09
2023-04-06T08:59:31.630Z,99562.41
2023-04-06T09:02:00.164Z,99561.50
2023-04-06T09:04:27.914Z,99561.88
2023-04-06T09:06:54.603Z,99564.97
2023-04-06T09:09:24.194Z,99558.34
2023-04-06T09:11:53.234Z,99553.41
2023-04-06T09:14:39.108Z,99549.03
2023-04-06T09:17:06.509Z,99555.13
2023-04-06T09:19:33.233Z,99557.72
2023-04-06T09:22:04.850Z,99550.34
2023-04-06T09:24:48.774Z,99547.09
2023-04-06T09:27:16.448Z,99547.41
2023-04-06T09:29:43.995Z,99547.97
2023-04-06T09:32:12.066Z,99549.53
2023-04-06T09:34:41.960Z,99539.59
2023-04-06T09:37:15.433Z,99533.47
2023-04-06T09:39:42.311Z,99531.09
2023-04-06T09:42:09.236Z,99531.72
2023-04-06T09:44:35.919Z,99526.56
2023-04-06T09:47:07.350Z,99528.91
2023-04-06T09:49:34.645Z,99530.75
2023-04-06T09:52:03.864Z,99517.03
2023-04-06T09:54:32.545Z,99518.84
2023-04-06T09:57:22.796Z,99521.66
2023-04-06T10:00:10.640Z,99526.84
2023-04-06T10:02:49.130Z,99525.25
2023-04-06T10:05:22.059Z,99534.59
2023-04-06T10:10:23.874Z,99535.66
2023-04-06T10:12:50.950Z,99536.38
2023-04-06T10:15:19.689Z,99532.72
2023-04-06T10:17:47.706Z,99531.63
2023-04-06T10:20:22.476Z,99531.84
2023-04-06T10:23:03.021Z,99531.25
2023-04-06T10:25:34.279Z,99525.22
2023-04-06T10:28:08.272Z,99531.66
2023-04-06T10:30:36.346Z,99535.38
2023-04-06T10:33:14.796Z,99525.97
2023-04-06T10:35:41.727Z,99527.16
2023-04-06T10:38:08.780Z,99529.63
2023-04-06T10:40:39.691Z,99533.47
2023-04-06T10:43:14.345Z,99532.84
2023-04-06T10:45:42.016Z,99529.53
2023-04-06T10:48:19.032Z,99527.31
2023-04-06T10:50:50.566Z,99539.66
2023-04-06T10:53:27.698Z,99539.06
2023-04-06T10:55:57.895Z,99527.84
2023-04-06T10:58:28.634Z,99518.88
2023-04-06T11:01:00.830Z,99529.66
2023-04-06T11:03:28.269Z,99521.84
2023-04-06T11:05:54.892Z,99524.44
2023-04-06T11:08:33.899Z,99538.00
2023-04-06T11:11:10.811Z,99528.81
2023-04-06T11:13:48.089Z,99530.53
2023-04-06T11:16:15.816Z,99522.97
2023-04-06T11:18:49.878Z,99523.31
2023-04-06T11:21:16.521Z,99526.78
2023-04-06T11:23:43.118Z,99525.91
2023-04-06T11:26:13.774Z,99518.50
2023-04-06T11:28:45.548Z,99520.72
2023-04-06T11:31:12.646Z,99516.97
2023-04-06T11:33:40.003Z,99525.13
2023-04-06T11:36:07.670Z,99513.09
2023-04-06T11:38:34.750Z,99512.94
2023-04-06T11:41:02.499Z,99519.69
2023-04-06T11:43:32.528Z,99521.38
2023-04-06T11:46:03.647Z,99512.16
2023-04-06T11:48:31.145Z,99514.16
2023-04-06T11:50:59.892Z,99510.72
2023-04-06T11:53:27.174Z,99508.13
2023-04-06T11:55:53.844Z,99512.56
2023-04-06T11:58:20.547Z,99500.97
2023-04-06T12:00:47.955Z,99506.28
2023-04-06T12:03:15.018Z,99501.47
2023-04-06T12:05:41.923Z,99496.66
2023-04-06T12:08:08.527Z,99494.69
2023-04-06T12:10:35.380Z,99505.84
2023-04-06T12:13:01.951Z,99514.81
2023-04-06T12:15:28.553Z,99520.72
2023-04-06T12:17:55.143Z,99506.59
2023-04-06T12:20:26.972Z,99512.22
2023-04-06T12:22:54.582Z,99514.44
2023-04-06T12:25:21.584Z,99510.63
2023-04-06T12:27:48.332Z,99505.81
2023-04-06T12:30:15.509Z,99504.47
2023-04-06T12:32:42.182Z,99512.19
2023-04-06T12:35:10.167Z,99517.88
2023-04-06T12:37:37.790Z,99522.59
2023-04-06T12:40:05.261Z,99515.75
2023-04-06T12:42:31.926Z,99510.72
2023-04-06T12:44:58.458Z,99518.34
2023-04-06T12:47:27.366Z,99514.53
2023-04-06T12:49:55.198Z,99514.31
2023-04-06T12:52:21.891Z,99514.94
2023-04-06T12:54:50.075Z,99529.75
2023-04-06T12:57:18.240Z,99532.91
2023-04-06T12:59:45.700Z,99527.38
2023-04-06T13:02:12.780Z,99532.88
2023-04-06T13:04:39.639Z,99529.06
2023-04-06T13:07:06.491Z,99533.56
2023-04-06T13:09:33.070Z,99518.84
2023-04-06T13:11:59.706Z,99517.75
2023-04-06T13:14:26.646Z,99522.47
2023-04-06T13:16:53.272Z,99522.97
2023-04-06T13:19:19.905Z,99525.69
2023-04-06T13:21:46.503Z,99528.06
2023-04-06T13:24:14.054Z,99524.97
2023-04-06T13:26:41.775Z,99524.69
2023-04-06T13:29:08.321Z,99536.38
2023-04-06T13:31:34.936Z,99523.00
2023-04-06T13:34:01.674Z,99532.44
2023-04-06T13:36:28.269Z,99528.81
2023-04-06T13:38:56.444Z,99528.06
2023-04-06T13:41:24.562Z,99531.34
2023-04-06T13:43:51.165Z,99529.00
2023-04-06T13:46:18.161Z,99525.78
2023-04-06T13:48:45.523Z,99524.59
2023-04-06T13:51:13.303Z,99508.06
2023-04-06T13:53:41.738Z,99510.84
2023-04-06T13:56:09.366Z,99515.00
2023-04-06T13:58:37.222Z,99501.78
2023-04-06T14:01:07.283Z,99503.16
2023-04-06T14:03:34.727Z,99498.28
2023-04-06T14:06:05.167Z,99503.41
2023-04-06T14:08:42.347Z,99499.38
2023-04-06T14:11:13.300Z,99487.78
2023-04-06T14:13:40.605Z,99487.53
2023-04-06T14:16:08.218Z,99493.75
2023-04-06T14:18:35.127Z,99492.66
2023-04-06T14:21:02.057Z,99485.34
2023-04-06T14:23:29.671Z,99484.69
2023-04-06T14:26:06.880Z,99487.28
2023-04-06T14:28:34.140Z,99486.84
2023-04-06T14:31:01.760Z,99478.59
2023-04-06T14:33:28.521Z,99485.25
2023-04-06T14:35:55.158Z,99474.34
2023-04-06T14:38:21.874Z,99477.03
2023-04-06T14:40:48.681Z,99476.47
2023-04-06T14:43:16.092Z,99468.38
2023-04-06T14:45:42.619Z,99473.69
2023-04-06T14:48:12.889Z,99462.66
2023-04-06T14:50:42.286Z,99457.03
2023-04-06T14:53:08.826Z,99462.53
2023-04-06T14:55:41.561Z,99460.41
2023-04-06T14:58:08.071Z,99458.81
2023-04-06T15:00:34.621Z,99470.56
2023-04-06T15:03:01.400Z,99462.78
2023-04-06T15:05:28.111Z,99457.47
2023-04-06T15:07:54.635Z,99458.06
2023-04-06T15:10:21.291Z,99457.84
2023-04-06T15:12:47.782Z,99462.00
2023-04-06T15:15:14.505Z,99453.44
2023-04-06T15:17:41.115Z,99444.91
2023-04-06T15:20:08.028Z,99450.91
2023-04-06T15:22:34.616Z,99452.00
2023-04-06T15:25:01.139Z,99448.19
2023-04-06T15:27:27.634Z,99449.00
2023-04-06T15:29:54.898Z,99446.59
2023-04-06T15:32:21.699Z,99450.91
2023-04-06T15:34:48.347Z,99453.88
2023-04-06T15:37:14.936Z,99451.19
2023-04-06T15:39:41.604Z,99453.59
2023-04-06T15:42:08.231Z,99458.69
2023-04-06T15:44:34.767Z,99456.81
2023-04-06T15:47:01.414Z,99460.03
2023-04-06T15:49:27.942Z,99450.91
2023-04-06T15:51:54.603Z,99451.41
2023-04-06T15:54:21.633Z,99444.91
2023-04-06T15:56:49.026Z,99451.09
2023-04-06T15:59:16.809Z,99446.53
2023-04-06T16:01:43.761Z,99448.91
2023-04-06T16:04:11.743Z,99439.50
2023-04-06T16:06:38.458Z,99443.31
2023-04-06T16:09:05.040Z,99442.50
2023-04-06T16:11:32.719Z,99437.09
2023-04-06T16:13:59.788Z,99436.81
2023-04-06T16:16:27.327Z,99439.50
2023-04-06T16:18:54.105Z,99429.50
2023-04-06T16:21:20.854Z,99449.50
2023-04-06T16:23:48.177Z,99434.69
2023-04-06T16:26:16.581Z,99436.94
2023-04-06T16:28:43.177Z,99447.31
2023-04-06T16:31:23.511Z,99444.16
2023-04-06T16:33:51.628Z,99442.56
2023-04-06T16:36:29.089Z,99438.28
2023-04-06T16:38:56.663Z,99441.56
2023-04-06T16:41:23.535Z,99445.44
2023-04-06T16:43:50.572Z,99447.38
2023-04-06T16:46:17.557Z,99445.00
2023-04-06T16:48:44.289Z,99448.03
2023-04-06T16:51:11.147Z,99446.69
2023-04-06T16:53:38.599Z,99451.59
2023-04-06T16:56:06.350Z,99447.84
2023-04-06T16:58:36.297Z,99446.81
2023-04-06T17:01:02.960Z,99447.91
2023-04-06T17:03:30.735Z,99443.81
2023-04-06T17:05:57.737Z,99439.81
2023-04-06T17:08:24.329Z,99436.03
2023-04-06T17:10:59.554Z,99430.41
2023-04-06T17:13:30.883Z,99434.19
2023-04-06T17:15:57.417Z,99435.00
2023-04-06T17:18:24.248Z,99425.31
2023-04-06T17:20:50.843Z,99422.03
2023-04-06T17:23:17.453Z,99433.84
2023-04-06T17:25:44.049Z,99432.19
2023-04-06T17:28:10.661Z,99428.69
2023-04-06T17:30:37.513Z,99433.28
2023-04-06T17:33:04.173Z,99435.97
2023-04-06T17:35:30.939Z,99440.28
2023-04-06T17:37:57.455Z,99439.50
2023-04-06T17:40:24.143Z,99431.66
2023-04-06T17:42:50.951Z,99434.09
2023-04-06T17:45:17.548Z,99431.72
2023-04-06T17:47:44.228Z,99423.19
2023-04-06T17:50:11.580Z,99424.31
2023-04-06T17:52:38.232Z,99423.03
2023-04-06T17:55:05.113Z,99425.53
2023-04-06T17:57:31.658Z,99426.63
2023-04-06T17:59:58.274Z,99421.22
2023-04-06T18:02:25.048Z,99427.72
2023-04-06T18:04:55.410Z,99418.81
2023-04-06T18:07:22.168Z,99427.41
2023-04-06T18:09:48.747Z,99439.00
2023-04-06T18:12:15.522Z,99427.72
2023-04-06T18:14:42.825Z,99443.38
2023-04-06T18:17:09.349Z,99433.94
2023-04-06T18:19:35.906Z,99439.59
2023-04-06T18:22:02.515Z,99434.41
2023-04-06T18:24:41.511Z,99427.91
2023-04-06T18:27:09.986Z,99427.13
2023-04-06T18:29:37.031Z,99428.22
2023-04-06T18:32:04.184Z,99432.00
2023-04-06T18:34:30.834Z,99433.09
2023-04-06T18:36:57.539Z,99435.81
2023-04-06T18:39:24.161Z,99433.38
2023-04-06T18:41:50.740Z,99447.38
2023-04-06T18:44:17.289Z,99439.28
2023-04-06T18:46:44.815Z,99436.06
2023-04-06T18:49:12.307Z,99436.06
2023-04-06T18:51:41.454Z,99437.97
2023-04-06T18:54:08.104Z,99435.81
2023-04-06T18:56:34.704Z,99444.41
2023-04-06T18:59:01.210Z,99442.81
2023-04-06T19:01:29.286Z,99442.81
2023-04-06T19:03:57.708Z,99438.50
2023-04-06T19:06:27.026Z,99441.47
2023-04-06T19:08:53.882Z,99434.47
2023-04-06T19:11:23.295Z,99446.34
2023-04-06T19:13:50.355Z,99443.91
2023-04-06T19:16:18.144Z,99440.44
2023-04-06T19:18:45.586Z,99439.63
2023-04-06T19:21:20.965Z,99438.53
2023-04-06T19:23:49.435Z,99433.94
2023-04-06T19:26:17.570Z,99428.56
2023-04-06T19:28:44.965Z,99432.34
2023-04-06T19:31:14.475Z,99429.91
2023-04-06T19:33:41.294Z,99429.97
2023-04-06T19:36:08.398Z,99431.06
2023-04-06T19:38:36.721Z,99426.19
2023-04-06T19:41:04.324Z,99427.59
2023-04-06T19:43:30.922Z,99431.06
2023-04-06T19:45:57.502Z,99430.78
2023-04-06T19:48:24.158Z,99429.47
2023-04-06T19:50:54.877Z,99428.13
2023-04-06T19:53:22.693Z,99424.13
2023-04-06T19:55:49.301Z,99432.72
2023-04-06T19:58:15.897Z,99425.44
2023-04-06T20:00:42.742Z,99422.47
2023-04-06T20:03:09.469Z,99425.69
2023-04-06T20:05:36.303Z,99422.72
2023-04-06T20:08:02.945Z,99421.88
2023-04-06T20:10:29.514Z,99428.69
2023-04-06T20:12:56.120Z,99426.50
2023-04-06T20:15:23.259Z,99425.16
2023-04-06T20:17:49.872Z,99425.97
2023-04-06T20:20:16.543Z,99427.84
2023-04-06T20:22:43.253Z,99427.84
2023-04-06T20:25:11.432Z,99431.63
2023-04-06T20:27:38.100Z,99430.03
2023-04-06T20:30:05.087Z,99432.72
2023-04-06T20:32:31.709Z,99433.81
2023-04-06T20:34:59.001Z,99435.41
2023-04-06T20:37:25.579Z,99436.22
2023-04-06T20:39:52.237Z,99451.03
2023-04-06T20:42:19.138Z,99444.53
2023-04-06T20:44:46.717Z,99447.25
2023-04-06T20:47:13.230Z,99438.59
2023-04-06T20:49:39.872Z,99432.41
2023-04-06T20:52:06.413Z,99437.50
2023-04-06T20:54:32.940Z,99427.53
2023-04-06T20:57:02.887Z,99425.84
2023-04-06T20:59:29.489Z,99422.34
2023-04-06T21:01:56.106Z,99429.38
2023-04-06T21:04:23.336Z,99419.66
2023-04-06T21:06:50.133Z,99419.66
2023-04-06T21:09:17.068Z,99411.56
2023-04-06T21:11:43.604Z,99408.59
2023-04-06T21:14:10.342Z,99408.34
2023-04-06T21:16:37.724Z,99408.34
2023-04-06T21:19:04.280Z,99400.25
2023-04-06T21:21:30.785Z,99391.97
2023-04-06T21:23:58.485Z,99390.63
2023-04-06T21:26:25.174Z,99385.53
2023-04-06T21:28:51.722Z,99386.06
2023-04-06T21:31:20.033Z,99388.78
2023-04-06T21:33:47.168Z,99391.47
2023-04-06T21:36:13.784Z,99391.19
2023-04-06T21:38:40.368Z,99390.69
2023-04-06T21:41:07.352Z,99381.25
2023-04-06T21:43:34.013Z,99382.09
2023-04-06T21:46:00.825Z,99373.78
2023-04-06T21:48:27.415Z,99385.13
2023-04-06T21:50:53.910Z,99383.00
2023-04-06T21:53:20.739Z,99377.38
2023-04-06T21:55:47.858Z,99382.50
2023-04-06T21:58:15.268Z,99388.94
2023-04-06T22:00:42.316Z,99387.06
2023-04-06T22:03:09.095Z,99393.28
2023-04-06T22:05:40.021Z,99398.88
2023-04-06T22:08:06.786Z,99396.69
2023-04-06T22:10:33.409Z,99386.75
2023-04-06T22:12:59.943Z,99378.34
2023-04-06T22:15:26.777Z,99382.66
2023-04-06T22:17:53.541Z,99377.25
2023-04-06T22:20:20.107Z,99380.25
2023-04-06T22:22:46.755Z,99375.13
2023-04-06T22:25:13.302Z,99368.97
2023-04-06T22:27:39.835Z,99391.88
2023-04-06T22:30:07.142Z,99383.28
2023-04-06T22:32:33.741Z,99380.34
2023-04-06T22:35:00.289Z,99380.63
2023-04-06T22:37:26.835Z,99375.00
2023-04-06T22:39:53.359Z,99378.78
2023-04-06T22:42:19.957Z,99376.03
2023-04-06T22:44:46.513Z,99380.63
2023-04-06T22:47:13.154Z,99372.81
2023-04-06T22:49:39.725Z,99371.78
2023-04-06T22:52:06.348Z,99371.84
2023-04-06T22:54:33.030Z,99374.28
2023-04-06T22:56:59.742Z,99368.38
2023-04-06T22:59:26.357Z,99362.47
2023-04-06T23:01:52.982Z,99366.25
2023-04-06T23:04:19.964Z,99362.75
2023-04-06T23:06:46.848Z,99371.72
2023-04-06T23:09:13.431Z,99372.28
2023-04-06T23:11:39.983Z,99373.38
2023-04-06T23:14:06.504Z,99367.69
2023-04-06T23:16:33.234Z,99356.06
2023-04-06T23:18:59.801Z,99364.09
2023-04-06T23:21:26.819Z,99354.91
2023-04-06T23:23:53.473Z,99353.84
2023-04-06T23:26:20.026Z,99350.34
2023-04-06T23:28:46.694Z,99351.44
2023-04-06T23:31:13.200Z,99356.53
2023-04-06T23:33:39.775Z,99344.97
2023-04-06T23:36:06.681Z,99347.13
2023-04-06T23:38:33.282Z,99347.41
2023-04-06T23:40:59.866Z,99352.28
2023-04-06T23:43:26.528Z,99354.97
2023-04-06T23:45:53.307Z,99357.09
2023-04-06T23:52:07.509Z,99361.91
2023-04-06T23:54:34.067Z,99364.34
2023-04-06T23:57:01.396Z,99366.97
2023-04-06T23:59:27.982Z,99363.19
